sensor_id;sensor_type;location;lat;lon;timestamp;P1;durP1;ratioP1;P2;durP2;ratioP2
74789;SDS011;63318;52.406;13.416;2023-11-21T00:01:16;0.70;;;0.30;;
74789;SDS011;63318;52.406;13.416;2023-11-21T00:03:44;0.40;;;0.20;;
74789;SDS011;63318;52.406;13.416;2023-11-21T00:06:12;0.80;;;0.30;;
74789;SDS011;63318;52.406;13.416;2023-11-21T00:08:41;1.00;;;0.60;;
74789;SDS011;63318;52.406;13.416;2023-11-21T00:11:09;0.20;;;0.20;;
74789;SDS011;63318;52.406;13.416;2023-11-21T00:13:37;0.50;;;0.50;;
74789;SDS011;63318;52.406;13.416;2023-11-21T00:16:06;0.10;;;0.10;;
74789;SDS011;63318;52.406;13.416;2023-11-21T00:18:35;0.20;;;0.10;;
74789;SDS011;63318;52.406;13.416;2023-11-21T00:21:03;0.60;;;0.30;;
74789;SDS011;63318;52.406;13.416;2023-11-21T00:23:32;1.20;;;0.60;;
74789;SDS011;63318;52.406;13.416;2023-11-21T00:26:00;0.80;;;0.30;;
74789;SDS011;63318;52.406;13.416;2023-11-21T00:28:28;1.00;;;0.40;;
74789;SDS011;63318;52.406;13.416;2023-11-21T00:30:57;1.20;;;0.70;;
74789;SDS011;63318;52.406;13.416;2023-11-21T00:33:25;1.80;;;0.80;;
74789;SDS011;63318;52.406;13.416;2023-11-21T00:35:53;2.10;;;1.10;;
74789;SDS011;63318;52.406;13.416;2023-11-21T00:38:21;1.70;;;1.10;;
74789;SDS011;63318;52.406;13.416;2023-11-21T00:40:50;0.80;;;0.30;;
74789;SDS011;63318;52.406;13.416;2023-11-21T00:43:18;2.60;;;1.20;;
74789;SDS011;63318;52.406;13.416;2023-11-21T00:45:46;1.00;;;0.50;;
74789;SDS011;63318;52.406;13.416;2023-11-21T00:48:14;2.40;;;0.80;;
74789;SDS011;63318;52.406;13.416;2023-11-21T00:50:43;2.70;;;1.40;;
74789;SDS011;63318;52.406;13.416;2023-11-21T00:53:11;3.00;;;1.10;;
74789;SDS011;63318;52.406;13.416;2023-11-21T00:55:39;2.10;;;1.00;;
74789;SDS011;63318;52.406;13.416;2023-11-21T00:58:08;1.60;;;0.60;;
74789;SDS011;63318;52.406;13.416;2023-11-21T01:00:36;2.80;;;1.50;;
74789;SDS011;63318;52.406;13.416;2023-11-21T01:03:04;2.10;;;1.30;;
74789;SDS011;63318;52.406;13.416;2023-11-21T01:05:33;2.60;;;1.00;;
74789;SDS011;63318;52.406;13.416;2023-11-21T01:08:01;3.40;;;2.20;;
74789;SDS011;63318;52.406;13.416;2023-11-21T01:10:29;2.80;;;2.30;;
74789;SDS011;63318;52.406;13.416;2023-11-21T01:12:58;3.80;;;1.80;;
74789;SDS011;63318;52.406;13.416;2023-11-21T01:15:26;5.80;;;2.60;;
74789;SDS011;63318;52.406;13.416;2023-11-21T01:17:54;2.90;;;1.40;;
74789;SDS011;63318;52.406;13.416;2023-11-21T01:20:22;4.20;;;2.40;;
74789;SDS011;63318;52.406;13.416;2023-11-21T01:22:51;2.50;;;1.30;;
74789;SDS011;63318;52.406;13.416;2023-11-21T01:25:19;3.80;;;1.60;;
74789;SDS011;63318;52.406;13.416;2023-11-21T01:27:47;11.40;;;2.50;;
74789;SDS011;63318;52.406;13.416;2023-11-21T01:30:15;5.30;;;2.50;;
74789;SDS011;63318;52.406;13.416;2023-11-21T01:32:44;3.70;;;2.60;;
74789;SDS011;63318;52.406;13.416;2023-11-21T01:35:12;4.00;;;2.90;;
74789;SDS011;63318;52.406;13.416;2023-11-21T01:37:41;4.90;;;2.30;;
74789;SDS011;63318;52.406;13.416;2023-11-21T01:40:10;5.00;;;2.90;;
74789;SDS011;63318;52.406;13.416;2023-11-21T01:42:39;9.90;;;3.10;;
74789;SDS011;63318;52.406;13.416;2023-11-21T01:45:08;4.50;;;3.70;;
74789;SDS011;63318;52.406;13.416;2023-11-21T01:47:37;4.50;;;2.20;;
74789;SDS011;63318;52.406;13.416;2023-11-21T01:50:08;5.50;;;3.50;;
74789;SDS011;63318;52.406;13.416;2023-11-21T01:52:39;5.50;;;3.10;;
74789;SDS011;63318;52.406;13.416;2023-11-21T01:55:10;5.30;;;3.90;;
74789;SDS011;63318;52.406;13.416;2023-11-21T01:57:40;10.80;;;4.40;;
74789;SDS011;63318;52.406;13.416;2023-11-21T02:00:10;7.80;;;3.60;;
74789;SDS011;63318;52.406;13.416;2023-11-21T02:02:39;4.30;;;2.60;;
74789;SDS011;63318;52.406;13.416;2023-11-21T02:05:07;7.90;;;3.80;;
74789;SDS011;63318;52.406;13.416;2023-11-21T02:07:36;7.20;;;4.40;;
74789;SDS011;63318;52.406;13.416;2023-11-21T02:10:05;7.00;;;3.30;;
74789;SDS011;63318;52.406;13.416;2023-11-21T02:12:34;6.20;;;4.10;;
74789;SDS011;63318;52.406;13.416;2023-11-21T02:15:02;12.00;;;5.10;;
74789;SDS011;63318;52.406;13.416;2023-11-21T02:17:32;12.10;;;7.00;;
74789;SDS011;63318;52.406;13.416;2023-11-21T02:20:01;9.20;;;4.40;;
74789;SDS011;63318;52.406;13.416;2023-11-21T02:22:31;6.20;;;3.70;;
74789;SDS011;63318;52.406;13.416;2023-11-21T02:25:04;7.70;;;5.50;;
74789;SDS011;63318;52.406;13.416;2023-11-21T02:27:33;11.90;;;6.10;;
74789;SDS011;63318;52.406;13.416;2023-11-21T02:30:01;7.80;;;5.90;;
74789;SDS011;63318;52.406;13.416;2023-11-21T02:32:30;14.50;;;4.90;;
74789;SDS011;63318;52.406;13.416;2023-11-21T02:34:58;8.40;;;4.60;;
74789;SDS011;63318;52.406;13.416;2023-11-21T02:37:27;10.70;;;6.30;;
74789;SDS011;63318;52.406;13.416;2023-11-21T02:39:55;8.80;;;5.50;;
74789;SDS011;63318;52.406;13.416;2023-11-21T02:42:23;22.00;;;4.60;;
74789;SDS011;63318;52.406;13.416;2023-11-21T02:44:52;12.60;;;6.10;;
74789;SDS011;63318;52.406;13.416;2023-11-21T02:47:20;11.00;;;5.60;;
74789;SDS011;63318;52.406;13.416;2023-11-21T02:49:49;11.70;;;4.60;;
74789;SDS011;63318;52.406;13.416;2023-11-21T02:52:17;7.10;;;4.10;;
74789;SDS011;63318;52.406;13.416;2023-11-21T02:54:45;9.90;;;5.30;;
74789;SDS011;63318;52.406;13.416;2023-11-21T02:57:14;8.40;;;6.50;;
74789;SDS011;63318;52.406;13.416;2023-11-21T02:59:42;10.00;;;6.70;;
74789;SDS011;63318;52.406;13.416;2023-11-21T03:02:10;7.60;;;4.90;;
74789;SDS011;63318;52.406;13.416;2023-11-21T03:04:38;11.80;;;5.80;;
74789;SDS011;63318;52.406;13.416;2023-11-21T03:07:08;8.40;;;4.10;;
74789;SDS011;63318;52.406;13.416;2023-11-21T03:09:36;8.40;;;4.60;;
74789;SDS011;63318;52.406;13.416;2023-11-21T03:12:06;5.90;;;3.80;;
74789;SDS011;63318;52.406;13.416;2023-11-21T03:14:36;7.40;;;3.30;;
74789;SDS011;63318;52.406;13.416;2023-11-21T03:17:04;6.50;;;3.20;;
74789;SDS011;63318;52.406;13.416;2023-11-21T03:19:33;7.30;;;4.00;;
74789;SDS011;63318;52.406;13.416;2023-11-21T03:22:01;6.10;;;3.80;;
74789;SDS011;63318;52.406;13.416;2023-11-21T03:24:30;7.40;;;4.80;;
74789;SDS011;63318;52.406;13.416;2023-11-21T03:26:58;5.10;;;3.20;;
74789;SDS011;63318;52.406;13.416;2023-11-21T03:29:26;8.80;;;4.30;;
74789;SDS011;63318;52.406;13.416;2023-11-21T03:31:54;2.80;;;1.70;;
74789;SDS011;63318;52.406;13.416;2023-11-21T03:34:24;3.00;;;2.00;;
74789;SDS011;63318;52.406;13.416;2023-11-21T03:36:54;3.50;;;1.60;;
74789;SDS011;63318;52.406;13.416;2023-11-21T03:39:22;4.30;;;2.30;;
74789;SDS011;63318;52.406;13.416;2023-11-21T03:41:50;3.70;;;2.70;;
74789;SDS011;63318;52.406;13.416;2023-11-21T03:44:19;3.60;;;2.00;;
74789;SDS011;63318;52.406;13.416;2023-11-21T03:46:47;3.00;;;2.10;;
74789;SDS011;63318;52.406;13.416;2023-11-21T03:49:16;2.60;;;1.60;;
74789;SDS011;63318;52.406;13.416;2023-11-21T03:51:44;3.60;;;2.80;;
74789;SDS011;63318;52.406;13.416;2023-11-21T03:54:12;4.70;;;1.70;;
74789;SDS011;63318;52.406;13.416;2023-11-21T03:56:40;6.40;;;1.60;;
74789;SDS011;63318;52.406;13.416;2023-11-21T03:59:09;2.70;;;1.80;;
74789;SDS011;63318;52.406;13.416;2023-11-21T04:01:37;3.90;;;2.20;;
74789;SDS011;63318;52.406;13.416;2023-11-21T04:04:05;2.70;;;1.50;;
74789;SDS011;63318;52.406;13.416;2023-11-21T04:06:34;4.20;;;2.40;;
74789;SDS011;63318;52.406;13.416;2023-11-21T04:09:02;4.30;;;2.30;;
74789;SDS011;63318;52.406;13.416;2023-11-21T04:11:30;3.80;;;2.10;;
74789;SDS011;63318;52.406;13.416;2023-11-21T04:13:59;4.40;;;1.70;;
74789;SDS011;63318;52.406;13.416;2023-11-21T04:16:27;2.70;;;2.10;;
74789;SDS011;63318;52.406;13.416;2023-11-21T04:18:55;2.90;;;1.50;;
74789;SDS011;63318;52.406;13.416;2023-11-21T04:21:23;3.70;;;2.00;;
74789;SDS011;63318;52.406;13.416;2023-11-21T04:23:51;4.40;;;2.10;;
74789;SDS011;63318;52.406;13.416;2023-11-21T04:26:20;2.20;;;1.10;;
74789;SDS011;63318;52.406;13.416;2023-11-21T04:28:48;3.30;;;1.80;;
74789;SDS011;63318;52.406;13.416;2023-11-21T04:31:16;2.70;;;1.70;;
74789;SDS011;63318;52.406;13.416;2023-11-21T04:33:44;3.60;;;1.60;;
74789;SDS011;63318;52.406;13.416;2023-11-21T04:36:13;3.70;;;1.50;;
74789;SDS011;63318;52.406;13.416;2023-11-21T04:38:41;4.20;;;2.20;;
74789;SDS011;63318;52.406;13.416;2023-11-21T04:41:09;3.00;;;2.00;;
74789;SDS011;63318;52.406;13.416;2023-11-21T04:43:37;3.80;;;1.90;;
74789;SDS011;63318;52.406;13.416;2023-11-21T04:46:06;2.40;;;1.10;;
74789;SDS011;63318;52.406;13.416;2023-11-21T04:48:34;4.40;;;2.60;;
74789;SDS011;63318;52.406;13.416;2023-11-21T04:51:02;3.10;;;1.90;;
74789;SDS011;63318;52.406;13.416;2023-11-21T04:53:31;2.90;;;1.90;;
74789;SDS011;63318;52.406;13.416;2023-11-21T04:55:59;3.00;;;1.30;;
74789;SDS011;63318;52.406;13.416;2023-11-21T04:58:27;3.80;;;2.10;;
74789;SDS011;63318;52.406;13.416;2023-11-21T05:00:56;3.70;;;2.40;;
74789;SDS011;63318;52.406;13.416;2023-11-21T05:03:25;2.00;;;1.20;;
74789;SDS011;63318;52.406;13.416;2023-11-21T05:05:53;3.40;;;1.90;;
74789;SDS011;63318;52.406;13.416;2023-11-21T05:08:22;4.20;;;1.70;;
74789;SDS011;63318;52.406;13.416;2023-11-21T05:10:50;3.70;;;1.70;;
74789;SDS011;63318;52.406;13.416;2023-11-21T05:13:18;1.90;;;1.00;;
74789;SDS011;63318;52.406;13.416;2023-11-21T05:15:46;2.00;;;1.00;;
74789;SDS011;63318;52.406;13.416;2023-11-21T05:18:16;3.70;;;1.60;;
74789;SDS011;63318;52.406;13.416;2023-11-21T05:20:44;1.80;;;1.10;;
74789;SDS011;63318;52.406;13.416;2023-11-21T05:23:12;4.20;;;2.10;;
74789;SDS011;63318;52.406;13.416;2023-11-21T05:25:40;2.40;;;1.10;;
74789;SDS011;63318;52.406;13.416;2023-11-21T05:28:09;5.70;;;2.30;;
74789;SDS011;63318;52.406;13.416;2023-11-21T05:30:37;1.80;;;1.00;;
74789;SDS011;63318;52.406;13.416;2023-11-21T05:33:05;3.40;;;1.90;;
74789;SDS011;63318;52.406;13.416;2023-11-21T05:35:33;0.80;;;0.50;;
74789;SDS011;63318;52.406;13.416;2023-11-21T05:38:02;5.60;;;1.20;;
74789;SDS011;63318;52.406;13.416;2023-11-21T05:40:30;4.80;;;1.90;;
74789;SDS011;63318;52.406;13.416;2023-11-21T05:42:58;3.10;;;1.70;;
74789;SDS011;63318;52.406;13.416;2023-11-21T05:45:26;1.70;;;1.10;;
74789;SDS011;63318;52.406;13.416;2023-11-21T05:47:55;2.80;;;1.20;;
74789;SDS011;63318;52.406;13.416;2023-11-21T05:50:24;3.60;;;1.30;;
74789;SDS011;63318;52.406;13.416;2023-11-21T05:52:52;2.20;;;1.00;;
74789;SDS011;63318;52.406;13.416;2023-11-21T05:55:22;2.90;;;1.10;;
74789;SDS011;63318;52.406;13.416;2023-11-21T05:57:50;4.10;;;1.60;;
74789;SDS011;63318;52.406;13.416;2023-11-21T06:00:19;2.10;;;1.40;;
74789;SDS011;63318;52.406;13.416;2023-11-21T06:02:48;4.00;;;1.30;;
74789;SDS011;63318;52.406;13.416;2023-11-21T06:05:17;1.40;;;0.80;;
74789;SDS011;63318;52.406;13.416;2023-11-21T06:07:46;4.20;;;2.10;;
74789;SDS011;63318;52.406;13.416;2023-11-21T06:10:15;3.50;;;1.40;;
74789;SDS011;63318;52.406;13.416;2023-11-21T06:12:43;2.50;;;1.20;;
74789;SDS011;63318;52.406;13.416;2023-11-21T06:15:12;3.60;;;1.90;;
74789;SDS011;63318;52.406;13.416;2023-11-21T06:17:40;3.20;;;1.70;;
74789;SDS011;63318;52.406;13.416;2023-11-21T06:20:09;2.60;;;0.70;;
74789;SDS011;63318;52.406;13.416;2023-11-21T06:22:38;1.00;;;0.60;;
74789;SDS011;63318;52.406;13.416;2023-11-21T06:25:08;2.50;;;1.60;;
74789;SDS011;63318;52.406;13.416;2023-11-21T06:27:38;3.20;;;0.70;;
74789;SDS011;63318;52.406;13.416;2023-11-21T06:30:08;1.40;;;0.90;;
74789;SDS011;63318;52.406;13.416;2023-11-21T06:32:38;4.30;;;1.60;;
74789;SDS011;63318;52.406;13.416;2023-11-21T06:35:07;3.30;;;1.30;;
74789;SDS011;63318;52.406;13.416;2023-11-21T06:37:36;2.10;;;1.40;;
74789;SDS011;63318;52.406;13.416;2023-11-21T06:40:05;3.70;;;2.40;;
74789;SDS011;63318;52.406;13.416;2023-11-21T06:42:35;2.00;;;1.00;;
74789;SDS011;63318;52.406;13.416;2023-11-21T06:45:03;6.20;;;1.80;;
74789;SDS011;63318;52.406;13.416;2023-11-21T06:47:33;2.50;;;1.50;;
74789;SDS011;63318;52.406;13.416;2023-11-21T06:50:02;2.00;;;1.10;;
74789;SDS011;63318;52.406;13.416;2023-11-21T06:52:30;3.20;;;0.90;;
74789;SDS011;63318;52.406;13.416;2023-11-21T06:54:59;2.50;;;0.70;;
74789;SDS011;63318;52.406;13.416;2023-11-21T06:57:27;3.50;;;1.80;;
74789;SDS011;63318;52.406;13.416;2023-11-21T06:59:56;3.30;;;1.50;;
74789;SDS011;63318;52.406;13.416;2023-11-21T07:02:24;3.70;;;1.30;;
74789;SDS011;63318;52.406;13.416;2023-11-21T07:04:52;2.50;;;1.00;;
74789;SDS011;63318;52.406;13.416;2023-11-21T07:07:20;1.80;;;1.10;;
74789;SDS011;63318;52.406;13.416;2023-11-21T07:09:49;1.70;;;1.10;;
74789;SDS011;63318;52.406;13.416;2023-11-21T07:12:17;1.70;;;1.10;;
74789;SDS011;63318;52.406;13.416;2023-11-21T07:14:45;3.60;;;2.20;;
74789;SDS011;63318;52.406;13.416;2023-11-21T07:17:14;3.20;;;2.00;;
74789;SDS011;63318;52.406;13.416;2023-11-21T07:19:42;3.70;;;1.50;;
74789;SDS011;63318;52.406;13.416;2023-11-21T07:22:10;2.10;;;1.10;;
74789;SDS011;63318;52.406;13.416;2023-11-21T07:24:39;3.00;;;1.20;;
74789;SDS011;63318;52.406;13.416;2023-11-21T07:27:09;2.10;;;1.10;;
74789;SDS011;63318;52.406;13.416;2023-11-21T07:29:38;2.00;;;1.10;;
74789;SDS011;63318;52.406;13.416;2023-11-21T07:32:06;4.60;;;1.70;;
74789;SDS011;63318;52.406;13.416;2023-11-21T07:34:34;3.50;;;1.10;;
74789;SDS011;63318;52.406;13.416;2023-11-21T07:37:03;3.10;;;0.70;;
74789;SDS011;63318;52.406;13.416;2023-11-21T07:39:32;2.30;;;1.40;;
74789;SDS011;63318;52.406;13.416;2023-11-21T07:42:00;3.60;;;1.50;;
74789;SDS011;63318;52.406;13.416;2023-11-21T07:44:29;2.00;;;1.10;;
74789;SDS011;63318;52.406;13.416;2023-11-21T07:46:57;3.00;;;1.00;;
74789;SDS011;63318;52.406;13.416;2023-11-21T07:49:26;3.30;;;1.60;;
74789;SDS011;63318;52.406;13.416;2023-11-21T07:51:54;2.90;;;1.40;;
74789;SDS011;63318;52.406;13.416;2023-11-21T07:54:22;1.80;;;1.30;;
74789;SDS011;63318;52.406;13.416;2023-11-21T07:56:50;1.80;;;1.00;;
74789;SDS011;63318;52.406;13.416;2023-11-21T07:59:19;1.50;;;0.60;;
74789;SDS011;63318;52.406;13.416;2023-11-21T08:01:50;2.40;;;1.20;;
74789;SDS011;63318;52.406;13.416;2023-11-21T08:04:18;8.80;;;2.00;;
74789;SDS011;63318;52.406;13.416;2023-11-21T08:06:47;2.00;;;1.10;;
74789;SDS011;63318;52.406;13.416;2023-11-21T08:09:15;2.20;;;0.70;;
74789;SDS011;63318;52.406;13.416;2023-11-21T08:11:46;2.50;;;0.90;;
74789;SDS011;63318;52.406;13.416;2023-11-21T08:14:14;4.00;;;1.50;;
74789;SDS011;63318;52.406;13.416;2023-11-21T08:16:43;1.90;;;1.20;;
74789;SDS011;63318;52.406;13.416;2023-11-21T08:19:11;1.30;;;0.70;;
74789;SDS011;63318;52.406;13.416;2023-11-21T08:21:39;1.70;;;0.90;;
74789;SDS011;63318;52.406;13.416;2023-11-21T08:24:08;1.10;;;0.80;;
74789;SDS011;63318;52.406;13.416;2023-11-21T08:26:36;3.50;;;1.10;;
74789;SDS011;63318;52.406;13.416;2023-11-21T08:29:05;2.30;;;0.90;;
74789;SDS011;63318;52.406;13.416;2023-11-21T08:31:33;4.20;;;1.80;;
74789;SDS011;63318;52.406;13.416;2023-11-21T08:34:01;1.20;;;0.60;;
74789;SDS011;63318;52.406;13.416;2023-11-21T08:36:30;3.30;;;1.00;;
74789;SDS011;63318;52.406;13.416;2023-11-21T08:38:58;3.60;;;1.10;;
74789;SDS011;63318;52.406;13.416;2023-11-21T08:41:26;3.30;;;1.90;;
74789;SDS011;63318;52.406;13.416;2023-11-21T08:43:55;3.70;;;1.60;;
74789;SDS011;63318;52.406;13.416;2023-11-21T08:46:23;2.40;;;1.30;;
74789;SDS011;63318;52.406;13.416;2023-11-21T08:48:52;5.20;;;1.70;;
74789;SDS011;63318;52.406;13.416;2023-11-21T08:51:20;1.90;;;0.90;;
74789;SDS011;63318;52.406;13.416;2023-11-21T08:53:48;6.00;;;2.10;;
74789;SDS011;63318;52.406;13.416;2023-11-21T08:56:17;5.10;;;2.00;;
74789;SDS011;63318;52.406;13.416;2023-11-21T08:58:45;4.00;;;2.80;;
74789;SDS011;63318;52.406;13.416;2023-11-21T09:01:13;4.90;;;2.20;;
74789;SDS011;63318;52.406;13.416;2023-11-21T09:03:42;2.30;;;1.50;;
74789;SDS011;63318;52.406;13.416;2023-11-21T09:06:11;2.80;;;1.40;;
74789;SDS011;63318;52.406;13.416;2023-11-21T09:08:40;3.00;;;1.40;;
74789;SDS011;63318;52.406;13.416;2023-11-21T09:11:08;2.50;;;0.90;;
74789;SDS011;63318;52.406;13.416;2023-11-21T09:13:37;3.90;;;2.10;;
74789;SDS011;63318;52.406;13.416;2023-11-21T09:16:06;3.80;;;2.40;;
74789;SDS011;63318;52.406;13.416;2023-11-21T09:18:35;2.50;;;1.80;;
74789;SDS011;63318;52.406;13.416;2023-11-21T09:21:04;5.10;;;1.60;;
74789;SDS011;63318;52.406;13.416;2023-11-21T09:23:33;4.60;;;2.30;;
74789;SDS011;63318;52.406;13.416;2023-11-21T09:26:02;2.20;;;1.80;;
74789;SDS011;63318;52.406;13.416;2023-11-21T09:28:31;3.90;;;2.00;;
74789;SDS011;63318;52.406;13.416;2023-11-21T09:31:00;3.80;;;2.30;;
74789;SDS011;63318;52.406;13.416;2023-11-21T09:33:28;1.60;;;1.00;;
74789;SDS011;63318;52.406;13.416;2023-11-21T09:35:57;6.30;;;1.50;;
74789;SDS011;63318;52.406;13.416;2023-11-21T09:38:27;3.60;;;1.10;;
74789;SDS011;63318;52.406;13.416;2023-11-21T09:40:55;6.60;;;2.80;;
74789;SDS011;63318;52.406;13.416;2023-11-21T09:43:24;3.10;;;2.10;;
74789;SDS011;63318;52.406;13.416;2023-11-21T09:45:59;1.70;;;0.80;;
74789;SDS011;63318;52.406;13.416;2023-11-21T09:48:28;3.80;;;1.70;;
74789;SDS011;63318;52.406;13.416;2023-11-21T09:50:59;4.20;;;1.80;;
74789;SDS011;63318;52.406;13.416;2023-11-21T09:53:29;2.60;;;0.90;;
74789;SDS011;63318;52.406;13.416;2023-11-21T09:56:00;2.10;;;0.70;;
74789;SDS011;63318;52.406;13.416;2023-11-21T09:58:29;3.40;;;0.70;;
74789;SDS011;63318;52.406;13.416;2023-11-21T10:00:58;1.70;;;0.80;;
74789;SDS011;63318;52.406;13.416;2023-11-21T10:03:28;3.30;;;1.20;;
74789;SDS011;63318;52.406;13.416;2023-11-21T10:05:56;2.10;;;0.60;;
74789;SDS011;63318;52.406;13.416;2023-11-21T10:08:25;1.70;;;0.70;;
74789;SDS011;63318;52.406;13.416;2023-11-21T10:10:54;1.20;;;0.40;;
74789;SDS011;63318;52.406;13.416;2023-11-21T10:13:24;2.50;;;1.00;;
74789;SDS011;63318;52.406;13.416;2023-11-21T10:15:57;3.00;;;0.70;;
74789;SDS011;63318;52.406;13.416;2023-11-21T10:18:26;1.50;;;0.40;;
74789;SDS011;63318;52.406;13.416;2023-11-21T10:20:56;1.30;;;0.50;;
74789;SDS011;63318;52.406;13.416;2023-11-21T10:23:25;0.70;;;0.50;;
74789;SDS011;63318;52.406;13.416;2023-11-21T10:25:54;3.70;;;1.50;;
74789;SDS011;63318;52.406;13.416;2023-11-21T10:28:24;1.30;;;0.80;;
74789;SDS011;63318;52.406;13.416;2023-11-21T10:30:53;0.90;;;0.40;;
74789;SDS011;63318;52.406;13.416;2023-11-21T10:33:28;1.40;;;0.30;;
74789;SDS011;63318;52.406;13.416;2023-11-21T10:35:56;0.60;;;0.50;;
74789;SDS011;63318;52.406;13.416;2023-11-21T10:38:26;0.60;;;0.20;;
74789;SDS011;63318;52.406;13.416;2023-11-21T10:40:54;2.70;;;0.90;;
74789;SDS011;63318;52.406;13.416;2023-11-21T10:43:25;1.90;;;0.70;;
74789;SDS011;63318;52.406;13.416;2023-11-21T10:45:54;0.60;;;0.40;;
74789;SDS011;63318;52.406;13.416;2023-11-21T10:48:25;0.50;;;0.30;;
74789;SDS011;63318;52.406;13.416;2023-11-21T10:50:54;0.80;;;0.40;;
74789;SDS011;63318;52.406;13.416;2023-11-21T10:53:28;2.40;;;0.50;;
74789;SDS011;63318;52.406;13.416;2023-11-21T10:56:02;1.80;;;0.90;;
74789;SDS011;63318;52.406;13.416;2023-11-21T10:58:35;1.20;;;0.60;;
74789;SDS011;63318;52.406;13.416;2023-11-21T11:01:05;0.40;;;0.20;;
74789;SDS011;63318;52.406;13.416;2023-11-21T11:03:36;1.40;;;0.70;;
74789;SDS011;63318;52.406;13.416;2023-11-21T11:06:06;1.20;;;0.40;;
74789;SDS011;63318;52.406;13.416;2023-11-21T11:08:35;0.40;;;0.40;;
74789;SDS011;63318;52.406;13.416;2023-11-21T11:11:06;0.50;;;0.30;;
74789;SDS011;63318;52.406;13.416;2023-11-21T11:13:35;16.50;;;0.70;;
74789;SDS011;63318;52.406;13.416;2023-11-21T11:16:05;1.90;;;0.40;;
74789;SDS011;63318;52.406;13.416;2023-11-21T11:18:35;2.20;;;0.70;;
74789;SDS011;63318;52.406;13.416;2023-11-21T11:21:10;0.70;;;0.30;;
74789;SDS011;63318;52.406;13.416;2023-11-21T11:23:53;1.30;;;0.60;;
74789;SDS011;63318;52.406;13.416;2023-11-21T11:26:34;1.00;;;0.40;;
74789;SDS011;63318;52.406;13.416;2023-11-21T11:29:13;0.70;;;0.70;;
74789;SDS011;63318;52.406;13.416;2023-11-21T11:31:54;0.90;;;0.60;;
74789;SDS011;63318;52.406;13.416;2023-11-21T11:34:30;1.20;;;0.60;;
74789;SDS011;63318;52.406;13.416;2023-11-21T11:37:03;2.00;;;1.00;;
74789;SDS011;63318;52.406;13.416;2023-11-21T11:39:37;1.90;;;0.80;;
74789;SDS011;63318;52.406;13.416;2023-11-21T11:42:08;0.80;;;0.50;;
74789;SDS011;63318;52.406;13.416;2023-11-21T11:44:51;1.30;;;0.70;;
74789;SDS011;63318;52.406;13.416;2023-11-21T11:47:24;1.20;;;0.60;;
74789;SDS011;63318;52.406;13.416;2023-11-21T11:50:05;1.50;;;0.60;;
74789;SDS011;63318;52.406;13.416;2023-11-21T11:52:35;0.70;;;0.30;;
74789;SDS011;63318;52.406;13.416;2023-11-21T11:55:08;2.60;;;1.10;;
74789;SDS011;63318;52.406;13.416;2023-11-21T11:57:41;1.90;;;0.50;;
74789;SDS011;63318;52.406;13.416;2023-11-21T12:00:13;1.90;;;1.10;;
74789;SDS011;63318;52.406;13.416;2023-11-21T12:02:43;1.30;;;0.60;;
74789;SDS011;63318;52.406;13.416;2023-11-21T12:05:13;1.70;;;1.20;;
74789;SDS011;63318;52.406;13.416;2023-11-21T12:07:50;1.20;;;0.60;;
74789;SDS011;63318;52.406;13.416;2023-11-21T12:10:20;1.30;;;0.50;;
74789;SDS011;63318;52.406;13.416;2023-11-21T12:12:50;4.30;;;0.90;;
74789;SDS011;63318;52.406;13.416;2023-11-21T12:15:20;1.70;;;0.70;;
74789;SDS011;63318;52.406;13.416;2023-11-21T12:17:52;1.00;;;0.30;;
74789;SDS011;63318;52.406;13.416;2023-11-21T12:20:21;0.80;;;0.40;;
74789;SDS011;63318;52.406;13.416;2023-11-21T12:22:51;1.50;;;0.60;;
74789;SDS011;63318;52.406;13.416;2023-11-21T12:25:21;2.80;;;0.80;;
74789;SDS011;63318;52.406;13.416;2023-11-21T12:27:51;1.30;;;0.50;;
74789;SDS011;63318;52.406;13.416;2023-11-21T12:30:21;3.20;;;1.20;;
74789;SDS011;63318;52.406;13.416;2023-11-21T12:32:51;1.90;;;0.60;;
74789;SDS011;63318;52.406;13.416;2023-11-21T12:35:21;0.90;;;0.50;;
74789;SDS011;63318;52.406;13.416;2023-11-21T12:37:53;0.80;;;0.20;;
74789;SDS011;63318;52.406;13.416;2023-11-21T12:40:22;3.30;;;0.60;;
74789;SDS011;63318;52.406;13.416;2023-11-21T12:42:52;4.90;;;0.80;;
74789;SDS011;63318;52.406;13.416;2023-11-21T12:45:22;1.30;;;0.70;;
74789;SDS011;63318;52.406;13.416;2023-11-21T12:47:52;0.90;;;0.70;;
74789;SDS011;63318;52.406;13.416;2023-11-21T12:50:23;0.90;;;0.60;;
74789;SDS011;63318;52.406;13.416;2023-11-21T12:52:52;2.10;;;1.30;;
74789;SDS011;63318;52.406;13.416;2023-11-21T12:55:25;2.20;;;0.70;;
74789;SDS011;63318;52.406;13.416;2023-11-21T12:57:57;1.30;;;0.40;;
74789;SDS011;63318;52.406;13.416;2023-11-21T13:00:30;0.90;;;0.60;;
74789;SDS011;63318;52.406;13.416;2023-11-21T13:03:00;2.20;;;0.80;;
74789;SDS011;63318;52.406;13.416;2023-11-21T13:05:30;1.50;;;0.70;;
74789;SDS011;63318;52.406;13.416;2023-11-21T13:08:00;1.40;;;0.80;;
74789;SDS011;63318;52.406;13.416;2023-11-21T13:10:30;1.30;;;0.90;;
74789;SDS011;63318;52.406;13.416;2023-11-21T13:12:59;0.80;;;0.50;;
74789;SDS011;63318;52.406;13.416;2023-11-21T13:15:28;3.30;;;1.20;;
74789;SDS011;63318;52.406;13.416;2023-11-21T13:17:58;1.10;;;0.70;;
74789;SDS011;63318;52.406;13.416;2023-11-21T13:20:27;0.50;;;0.20;;
74789;SDS011;63318;52.406;13.416;2023-11-21T13:22:57;0.50;;;0.30;;
74789;SDS011;63318;52.406;13.416;2023-11-21T13:25:26;2.00;;;1.20;;
74789;SDS011;63318;52.406;13.416;2023-11-21T13:27:55;2.50;;;0.50;;
74789;SDS011;63318;52.406;13.416;2023-11-21T13:30:25;0.50;;;0.30;;
74789;SDS011;63318;52.406;13.416;2023-11-21T13:32:54;0.70;;;0.40;;
74789;SDS011;63318;52.406;13.416;2023-11-21T13:35:23;1.10;;;0.60;;
74789;SDS011;63318;52.406;13.416;2023-11-21T13:37:52;1.40;;;1.00;;
74789;SDS011;63318;52.406;13.416;2023-11-21T13:40:22;1.00;;;0.60;;
74789;SDS011;63318;52.406;13.416;2023-11-21T13:42:53;0.90;;;0.50;;
74789;SDS011;63318;52.406;13.416;2023-11-21T13:45:23;1.20;;;0.50;;
74789;SDS011;63318;52.406;13.416;2023-11-21T13:47:52;0.90;;;0.80;;
74789;SDS011;63318;52.406;13.416;2023-11-21T13:50:21;2.80;;;0.80;;
74789;SDS011;63318;52.406;13.416;2023-11-21T13:52:50;0.70;;;0.30;;
74789;SDS011;63318;52.406;13.416;2023-11-21T13:55:18;1.90;;;1.00;;
74789;SDS011;63318;52.406;13.416;2023-11-21T13:57:47;1.10;;;0.40;;
74789;SDS011;63318;52.406;13.416;2023-11-21T14:00:18;0.90;;;0.50;;
74789;SDS011;63318;52.406;13.416;2023-11-21T14:02:47;2.10;;;1.00;;
74789;SDS011;63318;52.406;13.416;2023-11-21T14:05:15;1.50;;;0.80;;
74789;SDS011;63318;52.406;13.416;2023-11-21T14:07:44;1.70;;;1.10;;
74789;SDS011;63318;52.406;13.416;2023-11-21T14:10:12;4.00;;;1.40;;
74789;SDS011;63318;52.406;13.416;2023-11-21T14:12:41;3.30;;;1.40;;
74789;SDS011;63318;52.406;13.416;2023-11-21T14:15:10;2.00;;;0.90;;
74789;SDS011;63318;52.406;13.416;2023-11-21T14:17:38;2.30;;;1.00;;
74789;SDS011;63318;52.406;13.416;2023-11-21T14:20:08;2.90;;;1.30;;
74789;SDS011;63318;52.406;13.416;2023-11-21T14:22:37;1.90;;;1.40;;
74789;SDS011;63318;52.406;13.416;2023-11-21T14:25:07;2.10;;;1.30;;
74789;SDS011;63318;52.406;13.416;2023-11-21T14:27:36;1.80;;;1.10;;
74789;SDS011;63318;52.406;13.416;2023-11-21T14:30:05;1.60;;;0.60;;
74789;SDS011;63318;52.406;13.416;2023-11-21T14:32:35;2.00;;;1.10;;
74789;SDS011;63318;52.406;13.416;2023-11-21T14:35:04;2.80;;;1.00;;
74789;SDS011;63318;52.406;13.416;2023-11-21T14:37:35;1.60;;;0.70;;
74789;SDS011;63318;52.406;13.416;2023-11-21T14:40:04;2.60;;;1.50;;
74789;SDS011;63318;52.406;13.416;2023-11-21T14:42:35;1.10;;;0.50;;
74789;SDS011;63318;52.406;13.416;2023-11-21T14:45:05;2.60;;;0.90;;